sensor_id;sensor_type;location;lat;lon;timestamp;pressure;altitude;pressure_sealevel;temperature;humidity
56270;BME280;42176;43.240;27.880;2023-01-26T00:00:51;101064.53;;;0.05;100.00
56270;BME280;42176;43.240;27.880;2023-01-26T00:03:17;101073.59;;;0.40;100.00
56270;BME280;42176;43.240;27.880;2023-01-26T00:05:43;101079.13;;;0.50;100.00
56270;BME280;42176;43.240;27.880;2023-01-26T00:08:09;101066.50;;;-0.12;100.00
56270;BME280;42176;43.240;27.880;2023-01-26T00:10:35;101068.41;;;-0.08;100.00
56270;BME280;42176;43.240;27.880;2023-01-26T00:13:05;101039.16;;;0.25;100.00
56270;BME280;42176;43.240;27.880;2023-01-26T00:15:32;101059.25;;;0.53;100.00
56270;BME280;42176;43.240;27.880;2023-01-26T00:17:58;101054.78;;;0.51;100.00
56270;BME280;42176;43.240;27.880;2023-01-26T00:20:24;101069.41;;;-0.05;100.00
56270;BME280;42176;43.240;27.880;2023-01-26T00:22:49;101058.53;;;0.07;100.00
56270;BME280;42176;43.240;27.880;2023-01-26T00:25:15;101070.03;;;0.38;100.00
56270;BME280;42176;43.240;27.880;2023-01-26T00:27:40;101043.09;;;0.65;100.00
56270;BME280;42176;43.240;27.880;2023-01-26T00:32:34;101057.53;;;-0.21;100.00
56270;BME280;42176;43.240;27.880;2023-01-26T00:35:00;101045.81;;;0.17;100.00
56270;BME280;42176;43.240;27.880;2023-01-26T00:37:26;101038.16;;;0.47;100.00
56270;BME280;42176;43.240;27.880;2023-01-26T00:39:51;101049.47;;;0.48;100.00
56270;BME280;42176;43.240;27.880;2023-01-26T00:42:16;101038.22;;;-0.02;100.00
56270;BME280;42176;43.240;27.880;2023-01-26T00:44:42;101037.56;;;0.04;100.00
56270;BME280;42176;43.240;27.880;2023-01-26T00:47:09;101028.31;;;0.38;100.00
56270;BME280;42176;43.240;27.880;2023-01-26T00:49:35;101033.16;;;0.53;100.00
56270;BME280;42176;43.240;27.880;2023-01-26T00:52:01;101029.69;;;0.03;100.00
56270;BME280;42176;43.240;27.880;2023-01-26T00:54:27;101024.25;;;-0.04;100.00
56270;BME280;42176;43.240;27.880;2023-01-26T00:56:53;101026.22;;;0.28;100.00
56270;BME280;42176;43.240;27.880;2023-01-26T00:59:18;101020.03;;;0.52;100.00
56270;BME280;42176;43.240;27.880;2023-01-26T01:01:44;101017.19;;;0.70;100.00
56270;BME280;42176;43.240;27.880;2023-01-26T01:04:09;101019.00;;;0.21;100.00
56270;BME280;42176;43.240;27.880;2023-01-26T01:06:35;101015.06;;;-0.18;100.00
56270;BME280;42176;43.240;27.880;2023-01-26T01:09:00;100998.38;;;0.27;100.00
56270;BME280;42176;43.240;27.880;2023-01-26T01:11:26;101013.31;;;0.58;100.00
56270;BME280;42176;43.240;27.880;2023-01-26T01:13:52;101002.31;;;0.41;100.00
56270;BME280;42176;43.240;27.880;2023-01-26T01:16:17;100994.63;;;-0.06;100.00
56270;BME280;42176;43.240;27.880;2023-01-26T01:18:43;101004.50;;;0.03;100.00
56270;BME280;42176;43.240;27.880;2023-01-26T01:21:10;101002.22;;;0.38;100.00
56270;BME280;42176;43.240;27.880;2023-01-26T01:23:37;101001.34;;;0.65;100.00
56270;BME280;42176;43.240;27.880;2023-01-26T01:26:04;101004.94;;;0.16;100.00
56270;BME280;42176;43.240;27.880;2023-01-26T01:28:31;100995.00;;;-0.21;100.00
56270;BME280;42176;43.240;27.880;2023-01-26T01:30:56;100999.34;;;0.30;100.00
56270;BME280;42176;43.240;27.880;2023-01-26T01:33:22;101000.41;;;0.63;100.00
56270;BME280;42176;43.240;27.880;2023-01-26T01:35:57;101012.81;;;0.17;100.00
56270;BME280;42176;43.240;27.880;2023-01-26T01:38:23;100998.44;;;-0.22;100.00
56270;BME280;42176;43.240;27.880;2023-01-26T01:40:49;101015.69;;;0.25;100.00
56270;BME280;42176;43.240;27.880;2023-01-26T01:43:15;101006.28;;;0.56;100.00
56270;BME280;42176;43.240;27.880;2023-01-26T01:45:41;101001.16;;;0.59;100.00
56270;BME280;42176;43.240;27.880;2023-01-26T01:48:14;100990.59;;;0.03;100.00
56270;BME280;42176;43.240;27.880;2023-01-26T01:50:42;101005.59;;;0.10;100.00
56270;BME280;42176;43.240;27.880;2023-01-26T01:53:12;101005.88;;;0.43;100.00
56270;BME280;42176;43.240;27.880;2023-01-26T01:55:40;101015.81;;;0.83;100.00
56270;BME280;42176;43.240;27.880;2023-01-26T01:58:06;100997.72;;;0.34;100.00
56270;BME280;42176;43.240;27.880;2023-01-26T02:00:32;101006.84;;;-0.05;100.00
56270;BME280;42176;43.240;27.880;2023-01-26T02:03:05;101017.03;;;0.39;100.00
56270;BME280;42176;43.240;27.880;2023-01-26T02:05:51;100996.63;;;0.81;100.00
56270;BME280;42176;43.240;27.880;2023-01-26T02:08:21;100992.69;;;0.39;100.00
56270;BME280;42176;43.240;27.880;2023-01-26T02:10:50;100998.06;;;-0.07;100.00
56270;BME280;42176;43.240;27.880;2023-01-26T02:13:18;100996.69;;;0.29;100.00
56270;BME280;42176;43.240;27.880;2023-01-26T02:15:45;101001.06;;;0.56;100.00
56270;BME280;42176;43.240;27.880;2023-01-26T02:18:11;100984.72;;;0.89;100.00
56270;BME280;42176;43.240;27.880;2023-01-26T02:20:42;100983.84;;;0.35;100.00
56270;BME280;42176;43.240;27.880;2023-01-26T02:28:24;100969.84;;;0.59;100.00
56270;BME280;42176;43.240;27.880;2023-01-26T02:30:51;100975.00;;;0.85;100.00
56270;BME280;42176;43.240;27.880;2023-01-26T02:33:23;100955.06;;;0.32;100.00
56270;BME280;42176;43.240;27.880;2023-01-26T02:35:49;100939.63;;;-0.13;100.00
56270;BME280;42176;43.240;27.880;2023-01-26T02:38:15;100917.28;;;0.19;100.00
56270;BME280;42176;43.240;27.880;2023-01-26T02:41:07;100937.72;;;0.60;100.00
56270;BME280;42176;43.240;27.880;2023-01-26T02:43:33;100933.00;;;0.50;100.00
56270;BME280;42176;43.240;27.880;2023-01-26T02:45:59;100938.94;;;-0.08;100.00
56270;BME280;42176;43.240;27.880;2023-01-26T02:48:24;100929.31;;;-0.10;100.00
56270;BME280;42176;43.240;27.880;2023-01-26T02:51:08;100944.44;;;0.26;100.00
56270;BME280;42176;43.240;27.880;2023-01-26T02:53:34;100946.72;;;0.42;100.00
56270;BME280;42176;43.240;27.880;2023-01-26T02:55:59;100939.63;;;-0.13;100.00
56270;BME280;42176;43.240;27.880;2023-01-26T02:58:25;100931.63;;;-0.20;100.00
56270;BME280;42176;43.240;27.880;2023-01-26T03:00:50;100945.81;;;0.14;100.00
56270;BME280;42176;43.240;27.880;2023-01-26T03:03:23;100960.97;;;0.54;100.00
56270;BME280;42176;43.240;27.880;2023-01-26T03:05:50;100948.41;;;-0.11;100.00
56270;BME280;42176;43.240;27.880;2023-01-26T03:08:16;100947.19;;;-0.21;100.00
56270;BME280;42176;43.240;27.880;2023-01-26T03:10:41;100965.84;;;0.16;100.00
56270;BME280;42176;43.240;27.880;2023-01-26T03:13:07;100924.06;;;0.41;100.00
56270;BME280;42176;43.240;27.880;2023-01-26T03:15:33;100949.66;;;0.00;100.00
56270;BME280;42176;43.240;27.880;2023-01-26T03:18:12;100942.53;;;-0.30;100.00
56270;BME280;42176;43.240;27.880;2023-01-26T03:21:04;100949.25;;;0.13;100.00
56270;BME280;42176;43.240;27.880;2023-01-26T03:23:48;100959.53;;;0.62;100.00
56270;BME280;42176;43.240;27.880;2023-01-26T03:26:32;100942.44;;;-0.09;100.00
56270;BME280;42176;43.240;27.880;2023-01-26T03:29:16;100952.47;;;0.06;100.00
56270;BME280;42176;43.240;27.880;2023-01-26T03:31:42;100962.66;;;0.79;100.00
56270;BME280;42176;43.240;27.880;2023-01-26T03:34:07;100960.69;;;0.44;100.00
56270;BME280;42176;43.240;27.880;2023-01-26T03:36:33;100945.28;;;-0.01;100.00
56270;BME280;42176;43.240;27.880;2023-01-26T03:38:58;100946.91;;;0.21;100.00
56270;BME280;42176;43.240;27.880;2023-01-26T03:41:24;100955.25;;;0.38;100.00
56270;BME280;42176;43.240;27.880;2023-01-26T03:44:08;100959.31;;;0.83;100.00
56270;BME280;42176;43.240;27.880;2023-01-26T03:46:52;100936.81;;;0.06;100.00
56270;BME280;42176;43.240;27.880;2023-01-26T03:49:36;100943.09;;;0.11;100.00
56270;BME280;42176;43.240;27.880;2023-01-26T03:52:21;100967.75;;;0.49;100.00
56270;BME280;42176;43.240;27.880;2023-01-26T03:55:06;100967.69;;;0.45;100.00
56270;BME280;42176;43.240;27.880;2023-01-26T03:57:50;100948.19;;;-0.18;100.00
56270;BME280;42176;43.240;27.880;2023-01-26T04:00:15;100955.56;;;0.20;100.00
56270;BME280;42176;43.240;27.880;2023-01-26T04:02:41;100965.91;;;0.44;100.00
56270;BME280;42176;43.240;27.880;2023-01-26T04:05:25;100959.59;;;0.65;100.00
56270;BME280;42176;43.240;27.880;2023-01-26T04:08:09;100946.84;;;-0.06;100.00
56270;BME280;42176;43.240;27.880;2023-01-26T04:10:49;100942.66;;;0.25;100.00
56270;BME280;42176;43.240;27.880;2023-01-26T04:13:16;100943.66;;;0.56;100.00
56270;BME280;42176;43.240;27.880;2023-01-26T04:16:01;100946.94;;;1.06;100.00
56270;BME280;42176;43.240;27.880;2023-01-26T04:18:44;100938.34;;;0.53;100.00
56270;BME280;42176;43.240;27.880;2023-01-26T04:21:28;100925.34;;;0.27;100.00
56270;BME280;42176;43.240;27.880;2023-01-26T04:23:55;100932.19;;;0.51;100.00
56270;BME280;42176;43.240;27.880;2023-01-26T04:26:30;100947.69;;;0.73;100.00
56270;BME280;42176;43.240;27.880;2023-01-26T04:29:07;100946.13;;;1.08;100.00
56270;BME280;42176;43.240;27.880;2023-01-26T04:31:33;100937.41;;;0.51;100.00
56270;BME280;42176;43.240;27.880;2023-01-26T04:34:00;100926.19;;;0.26;100.00
56270;BME280;42176;43.240;27.880;2023-01-26T04:36:26;100923.84;;;0.35;100.00
56270;BME280;42176;43.240;27.880;2023-01-26T04:38:52;100949.47;;;0.74;100.00
56270;BME280;42176;43.240;27.880;2023-01-26T04:41:18;100923.78;;;1.19;100.00
56270;BME280;42176;43.240;27.880;2023-01-26T04:43:43;100933.69;;;0.71;100.00
56270;BME280;42176;43.240;27.880;2023-01-26T04:46:09;100931.59;;;0.59;100.00
56270;BME280;42176;43.240;27.880;2023-01-26T04:48:35;100911.25;;;0.77;100.00
56270;BME280;42176;43.240;27.880;2023-01-26T04:51:07;100946.75;;;1.00;100.00
56270;BME280;42176;43.240;27.880;2023-01-26T04:53:34;100930.13;;;1.27;100.00
56270;BME280;42176;43.240;27.880;2023-01-26T04:55:59;100918.44;;;0.56;100.00
56270;BME280;42176;43.240;27.880;2023-01-26T04:58:25;100925.06;;;0.74;100.00
56270;BME280;42176;43.240;27.880;2023-01-26T05:00:52;100929.22;;;0.96;100.00
56270;BME280;42176;43.240;27.880;2023-01-26T05:03:18;100921.00;;;1.13;100.00
56270;BME280;42176;43.240;27.880;2023-01-26T05:05:44;100920.09;;;1.43;100.00
56270;BME280;42176;43.240;27.880;2023-01-26T05:08:12;100906.66;;;0.69;100.00
56270;BME280;42176;43.240;27.880;2023-01-26T05:10:37;100904.59;;;0.30;100.00
56270;BME280;42176;43.240;27.880;2023-01-26T05:13:02;100916.66;;;0.55;100.00
56270;BME280;42176;43.240;27.880;2023-01-26T05:15:28;100913.56;;;0.67;100.00
56270;BME280;42176;43.240;27.880;2023-01-26T05:17:57;100924.00;;;0.96;100.00
56270;BME280;42176;43.240;27.880;2023-01-26T05:20:23;100883.72;;;0.30;100.00
56270;BME280;42176;43.240;27.880;2023-01-26T05:22:48;100905.34;;;0.00;100.00
56270;BME280;42176;43.240;27.880;2023-01-26T05:25:13;100909.69;;;0.27;100.00
56270;BME280;42176;43.240;27.880;2023-01-26T05:27:39;100923.06;;;0.65;100.00
56270;BME280;42176;43.240;27.880;2023-01-26T05:30:05;100921.34;;;0.66;100.00
56270;BME280;42176;43.240;27.880;2023-01-26T05:32:30;100926.81;;;0.19;100.00
56270;BME280;42176;43.240;27.880;2023-01-26T05:34:56;100937.16;;;0.43;100.00
56270;BME280;42176;43.240;27.880;2023-01-26T05:37:28;100943.88;;;0.62;100.00
56270;BME280;42176;43.240;27.880;2023-01-26T05:39:54;100953.19;;;0.83;100.00
56270;BME280;42176;43.240;27.880;2023-01-26T05:42:20;100950.31;;;1.02;100.00
56270;BME280;42176;43.240;27.880;2023-01-26T05:44:45;100930.75;;;0.33;100.00
56270;BME280;42176;43.240;27.880;2023-01-26T05:47:11;100938.13;;;0.19;100.00
56270;BME280;42176;43.240;27.880;2023-01-26T05:49:36;100939.72;;;0.41;100.00
56270;BME280;42176;43.240;27.880;2023-01-26T05:52:20;100932.84;;;1.01;100.00
56270;BME280;42176;43.240;27.880;2023-01-26T05:54:46;100926.47;;;0.35;100.00
56270;BME280;42176;43.240;27.880;2023-01-26T05:57:11;100927.44;;;-0.14;100.00
56270;BME280;42176;43.240;27.880;2023-01-26T05:59:37;100926.22;;;0.27;100.00
56270;BME280;42176;43.240;27.880;2023-01-26T06:02:03;100934.88;;;0.54;100.00
56270;BME280;42176;43.240;27.880;2023-01-26T06:04:29;100933.13;;;1.11;100.00
56270;BME280;42176;43.240;27.880;2023-01-26T06:06:56;100919.81;;;0.45;100.00
56270;BME280;42176;43.240;27.880;2023-01-26T06:09:22;100914.00;;;-0.01;100.00
56270;BME280;42176;43.240;27.880;2023-01-26T06:11:48;100920.53;;;0.39;100.00
56270;BME280;42176;43.240;27.880;2023-01-26T06:14:13;100932.66;;;0.95;100.00
56270;BME280;42176;43.240;27.880;2023-01-26T06:16:39;100913.63;;;0.41;100.00
56270;BME280;42176;43.240;27.880;2023-01-26T06:19:04;100918.47;;;0.29;100.00
56270;BME280;42176;43.240;27.880;2023-01-26T06:21:31;100914.13;;;0.57;100.00
56270;BME280;42176;43.240;27.880;2023-01-26T06:23:57;100924.69;;;0.90;100.00
56270;BME280;42176;43.240;27.880;2023-01-26T06:26:22;100912.63;;;1.55;100.00
56270;BME280;42176;43.240;27.880;2023-01-26T06:28:51;100909.38;;;1.01;100.00
56270;BME280;42176;43.240;27.880;2023-01-26T06:31:17;100905.25;;;0.52;100.00
56270;BME280;42176;43.240;27.880;2023-01-26T06:33:43;100908.31;;;0.96;100.00
56270;BME280;42176;43.240;27.880;2023-01-26T06:36:11;100912.66;;;1.26;100.00
56270;BME280;42176;43.240;27.880;2023-01-26T06:38:37;100909.84;;;1.49;100.00
56270;BME280;42176;43.240;27.880;2023-01-26T06:41:05;100906.06;;;1.71;100.00
56270;BME280;42176;43.240;27.880;2023-01-26T06:43:33;100901.44;;;1.94;100.00
56270;BME280;42176;43.240;27.880;2023-01-26T06:45:59;100906.44;;;2.20;100.00
56270;BME280;42176;43.240;27.880;2023-01-26T06:48:26;100896.81;;;2.56;100.00
56270;BME280;42176;43.240;27.880;2023-01-26T06:50:57;100880.69;;;1.67;100.00
56270;BME280;42176;43.240;27.880;2023-01-26T06:53:36;100884.72;;;1.22;100.00
56270;BME280;42176;43.240;27.880;2023-01-26T06:56:01;100892.88;;;1.34;100.00
56270;BME280;42176;43.240;27.880;2023-01-26T06:58:27;100898.75;;;1.91;100.00
56270;BME280;42176;43.240;27.880;2023-01-26T07:00:53;100893.03;;;2.43;100.00
56270;BME280;42176;43.240;27.880;2023-01-26T07:03:19;100892.03;;;2.76;100.00
56270;BME280;42176;43.240;27.880;2023-01-26T07:05:45;100867.09;;;2.16;100.00
56270;BME280;42176;43.240;27.880;2023-01-26T07:08:10;100867.66;;;2.04;100.00
56270;BME280;42176;43.240;27.880;2023-01-26T07:10:36;100869.72;;;2.94;100.00
56270;BME280;42176;43.240;27.880;2023-01-26T07:13:05;100867.75;;;3.75;100.00
56270;BME280;42176;43.240;27.880;2023-01-26T07:15:31;100855.69;;;4.39;100.00
56270;BME280;42176;43.240;27.880;2023-01-26T07:17:57;100848.19;;;4.68;100.00
56270;BME280;42176;43.240;27.880;2023-01-26T07:20:23;100831.66;;;6.62;100.00
56270;BME280;42176;43.240;27.880;2023-01-26T07:22:49;100811.66;;;8.75;97.29
56270;BME280;42176;43.240;27.880;2023-01-26T07:25:15;100827.41;;;6.91;91.69
56270;BME280;42176;43.240;27.880;2023-01-26T07:27:40;100826.53;;;6.96;100.00
56270;BME280;42176;43.240;27.880;2023-01-26T07:30:07;100826.47;;;9.13;89.23
56270;BME280;42176;43.240;27.880;2023-01-26T07:32:35;100822.44;;;10.82;74.97
56270;BME280;42176;43.240;27.880;2023-01-26T07:35:00;100822.28;;;11.59;67.87
56270;BME280;42176;43.240;27.880;2023-01-26T07:37:27;100816.88;;;11.03;68.12
56270;BME280;42176;43.240;27.880;2023-01-26T07:39:52;100823.22;;;7.92;77.35
56270;BME280;42176;43.240;27.880;2023-01-26T07:42:18;100826.63;;;5.73;95.34
56270;BME280;42176;43.240;27.880;2023-01-26T07:44:43;100825.44;;;5.43;100.00
56270;BME280;42176;43.240;27.880;2023-01-26T07:47:09;100808.72;;;6.38;100.00
56270;BME280;42176;43.240;27.880;2023-01-26T07:49:35;100805.47;;;6.99;100.00
56270;BME280;42176;43.240;27.880;2023-01-26T07:52:01;100795.06;;;7.91;94.00
56270;BME280;42176;43.240;27.880;2023-01-26T07:54:26;100787.06;;;8.50;88.03
56270;BME280;42176;43.240;27.880;2023-01-26T07:56:52;100775.41;;;8.99;85.08
56270;BME280;42176;43.240;27.880;2023-01-26T07:59:22;100781.84;;;8.03;83.12
56270;BME280;42176;43.240;27.880;2023-01-26T08:01:49;100782.56;;;5.50;98.88
56270;BME280;42176;43.240;27.880;2023-01-26T08:04:15;100782.91;;;5.93;100.00
56270;BME280;42176;43.240;27.880;2023-01-26T08:06:40;100785.38;;;7.56;99.21
56270;BME280;42176;43.240;27.880;2023-01-26T08:09:06;100784.47;;;8.13;92.85
56270;BME280;42176;43.240;27.880;2023-01-26T08:11:32;100781.78;;;8.50;89.43
56270;BME280;42176;43.240;27.880;2023-01-26T08:13:57;100787.06;;;8.31;88.26
56270;BME280;42176;43.240;27.880;2023-01-26T08:16:23;100783.50;;;7.02;92.40
56270;BME280;42176;43.240;27.880;2023-01-26T08:18:48;100798.53;;;4.87;100.00
56270;BME280;42176;43.240;27.880;2023-01-26T08:21:15;100793.66;;;4.46;100.00
56270;BME280;42176;43.240;27.880;2023-01-26T08:23:41;100819.59;;;4.88;100.00
56270;BME280;42176;43.240;27.880;2023-01-26T08:26:09;100817.25;;;5.15;100.00
56270;BME280;42176;43.240;27.880;2023-01-26T08:28:35;100824.94;;;4.99;100.00
56270;BME280;42176;43.240;27.880;2023-01-26T08:31:17;100832.56;;;4.15;100.00
56270;BME280;42176;43.240;27.880;2023-01-26T08:33:45;100822.56;;;3.89;100.00
56270;BME280;42176;43.240;27.880;2023-01-26T08:36:11;100834.41;;;4.20;100.00
56270;BME280;42176;43.240;27.880;2023-01-26T08:38:37;100826.06;;;4.49;100.00
56270;BME280;42176;43.240;27.880;2023-01-26T08:41:04;100823.06;;;4.23;100.00
56270;BME280;42176;43.240;27.880;2023-01-26T08:43:30;100817.00;;;3.70;100.00
56270;BME280;42176;43.240;27.880;2023-01-26T08:45:56;100824.47;;;3.99;100.00
56270;BME280;42176;43.240;27.880;2023-01-26T08:48:22;100823.09;;;4.26;100.00
56270;BME280;42176;43.240;27.880;2023-01-26T08:50:48;100812.06;;;4.49;100.00
56270;BME280;42176;43.240;27.880;2023-01-26T08:53:17;100801.06;;;3.58;100.00
56270;BME280;42176;43.240;27.880;2023-01-26T08:55:42;100812.41;;;3.58;100.00
56270;BME280;42176;43.240;27.880;2023-01-26T08:58:08;100813.59;;;3.77;100.00
56270;BME280;42176;43.240;27.880;2023-01-26T09:00:33;100804.28;;;3.95;100.00
56270;BME280;42176;43.240;27.880;2023-01-26T09:03:00;100797.34;;;3.46;100.00
56270;BME280;42176;43.240;27.880;2023-01-26T09:05:27;100797.78;;;3.73;100.00
56270;BME280;42176;43.240;27.880;2023-01-26T09:07:55;100752.94;;;4.13;100.00
56270;BME280;42176;43.240;27.880;2023-01-26T09:10:20;100773.63;;;3.92;100.00
56270;BME280;42176;43.240;27.880;2023-01-26T09:12:46;100767.03;;;4.21;100.00
56270;BME280;42176;43.240;27.880;2023-01-26T09:15:11;100776.25;;;4.54;100.00
56270;BME280;42176;43.240;27.880;2023-01-26T09:17:37;100770.63;;;4.26;100.00
56270;BME280;42176;43.240;27.880;2023-01-26T09:20:04;100759.72;;;3.96;100.00
56270;BME280;42176;43.240;27.880;2023-01-26T09:22:30;100755.63;;;4.17;100.00
56270;BME280;42176;43.240;27.880;2023-01-26T09:24:55;100743.63;;;4.35;100.00
56270;BME280;42176;43.240;27.880;2023-01-26T09:27:21;100764.16;;;4.02;100.00
56270;BME280;42176;43.240;27.880;2023-01-26T09:29:46;100756.63;;;3.67;100.00
56270;BME280;42176;43.240;27.880;2023-01-26T09:32:12;100763.16;;;3.94;100.00
56270;BME280;42176;43.240;27.880;2023-01-26T09:34:37;100744.38;;;4.26;100.00
56270;BME280;42176;43.240;27.880;2023-01-26T09:37:08;100742.72;;;3.73;100.00
56270;BME280;42176;43.240;27.880;2023-01-26T09:39:33;100743.22;;;3.48;100.00
56270;BME280;42176;43.240;27.880;2023-01-26T09:44:49;100751.22;;;4.15;100.00
56270;BME280;42176;43.240;27.880;2023-01-26T09:47:25;100722.41;;;3.58;100.00
56270;BME280;42176;43.240;27.880;2023-01-26T09:50:11;100736.81;;;3.85;100.00
56270;BME280;42176;43.240;27.880;2023-01-26T09:52:53;100730.91;;;4.01;100.00
56270;BME280;42176;43.240;27.880;2023-01-26T09:55:22;100726.88;;;4.25;100.00
56270;BME280;42176;43.240;27.880;2023-01-26T09:57:56;100719.28;;;3.84;100.00
56270;BME280;42176;43.240;27.880;2023-01-26T10:00:31;100708.38;;;3.56;100.00
56270;BME280;42176;43.240;27.880;2023-01-26T10:05:48;100712.22;;;4.42;100.00
56270;BME280;42176;43.240;27.880;2023-01-26T10:08:17;100705.16;;;3.75;100.00
56270;BME280;42176;43.240;27.880;2023-01-26T10:10:53;100705.78;;;3.59;100.00
56270;BME280;42176;43.240;27.880;2023-01-26T10:13:22;100694.94;;;3.94;100.00
56270;BME280;42176;43.240;27.880;2023-01-26T10:15:55;100697.06;;;4.20;100.00
56270;BME280;42176;43.240;27.880;2023-01-26T10:18:29;100695.56;;;4.40;100.00
56270;BME280;42176;43.240;27.880;2023-01-26T10:20:58;100711.88;;;4.90;100.00
56270;BME280;42176;43.240;27.880;2023-01-26T10:23:28;100679.31;;;4.00;100.00
56270;BME280;42176;43.240;27.880;2023-01-26T10:26:14;100677.72;;;4.11;100.00
56270;BME280;42176;43.240;27.880;2023-01-26T10:28:48;100672.88;;;4.46;100.00
56270;BME280;42176;43.240;27.880;2023-01-26T10:31:22;100667.88;;;4.70;100.00
56270;BME280;42176;43.240;27.880;2023-01-26T10:34:31;100661.56;;;4.53;100.00
56270;BME280;42176;43.240;27.880;2023-01-26T10:36:39;100652.63;;;5.23;100.00
56270;BME280;42176;43.240;27.880;2023-01-26T10:39:10;100643.25;;;5.61;100.00
56270;BME280;42176;43.240;27.880;2023-01-26T10:41:36;100633.91;;;6.05;100.00
56270;BME280;42176;43.240;27.880;2023-01-26T10:44:28;100623.16;;;5.71;100.00
56270;BME280;42176;43.240;27.880;2023-01-26T10:47:28;100604.88;;;5.97;100.00
56270;BME280;42176;43.240;27.880;2023-01-26T10:50:21;100612.00;;;6.24;100.00
56270;BME280;42176;43.240;27.880;2023-01-26T10:52:58;100621.75;;;6.43;100.00
56270;BME280;42176;43.240;27.880;2023-01-26T10:55:24;100613.00;;;6.58;100.00
56270;BME280;42176;43.240;27.880;2023-01-26T10:57:49;100606.84;;;6.59;100.00
56270;BME280;42176;43.240;27.880;2023-01-26T11:02:52;100592.81;;;6.70;100.00
56270;BME280;42176;43.240;27.880;2023-01-26T11:05:20;100611.28;;;6.78;100.00
56270;BME280;42176;43.240;27.880;2023-01-26T11:07:56;100586.50;;;6.08;100.00
56270;BME280;42176;43.240;27.880;2023-01-26T11:10:33;100591.53;;;5.58;100.00
56270;BME280;42176;43.240;27.880;2023-01-26T11:13:16;100595.28;;;6.10;100.00
56270;BME280;42176;43.240;27.880;2023-01-26T11:15:46;100587.50;;;6.38;100.00
56270;BME280;42176;43.240;27.880;2023-01-26T11:18:22;100598.94;;;6.59;100.00
56270;BME280;42176;43.240;27.880;2023-01-26T11:21:02;100583.00;;;6.03;100.00
56270;BME280;42176;43.240;27.880;2023-01-26T11:23:47;100578.47;;;5.80;100.00
56270;BME280;42176;43.240;27.880;2023-01-26T11:26:45;100583.03;;;6.14;100.00
56270;BME280;42176;43.240;27.880;2023-01-26T11:29:49;100583.81;;;5.99;100.00
56270;BME280;42176;43.240;27.880;2023-01-26T11:38:28;100587.38;;;6.01;100.00
56270;BME280;42176;43.240;27.880;2023-01-26T11:43:55;100561.13;;;6.22;100.00
56270;BME280;42176;43.240;27.880;2023-01-26T11:54:23;100557.56;;;6.02;100.00
56270;BME280;42176;43.240;27.880;2023-01-26T11:59:38;100558.47;;;6.25;100.00
56270;BME280;42176;43.240;27.880;2023-01-26T12:04:50;100557.66;;;6.53;100.00
56270;BME280;42176;43.240;27.880;2023-01-26T12:07:34;100548.81;;;6.06;100.00
56270;BME280;42176;43.240;27.880;2023-01-26T12:10:16;100549.75;;;6.58;100.00
56270;BME280;42176;43.240;27.880;2023-01-26T12:12:50;100539.25;;;6.76;100.00
56270;BME280;42176;43.240;27.880;2023-01-26T12:15:32;100548.88;;;6.55;100.00
56270;BME280;42176;43.240;27.880;2023-01-26T12:21:06;100548.00;;;6.57;100.00
56270;BME280;42176;43.240;27.880;2023-01-26T12:23:49;100548.03;;;6.50;100.00
56270;BME280;42176;43.240;27.880;2023-01-26T12:26:17;100544.50;;;6.44;100.00
56270;BME280;42176;43.240;27.880;2023-01-26T12:31:39;100545.41;;;6.89;100.00
56270;BME280;42176;43.240;27.880;2023-01-26T12:34:12;100541.00;;;6.52;100.00
56270;BME280;42176;43.240;27.880;2023-01-26T12:44:56;100526.09;;;6.75;100.00
56270;BME280;42176;43.240;27.880;2023-01-26T12:47:37;100526.94;;;6.88;100.00
56270;BME280;42176;43.240;27.880;2023-01-26T12:55:20;100522.50;;;6.32;100.00
56270;BME280;42176;43.240;27.880;2023-01-26T12:57:51;100516.44;;;6.69;100.00
56270;BME280;42176;43.240;27.880;2023-01-26T13:03:20;100508.47;;;7.09;100.00
56270;BME280;42176;43.240;27.880;2023-01-26T13:10:58;100497.94;;;7.09;100.00
56270;BME280;42176;43.240;27.880;2023-01-26T13:13:31;100492.63;;;7.11;100.00
56270;BME280;42176;43.240;27.880;2023-01-26T13:26:48;100466.31;;;6.05;100.00
56270;BME280;42176;43.240;27.880;2023-01-26T13:34:38;100454.97;;;6.36;100.00
56270;BME280;42176;43.240;27.880;2023-01-26T13:37:16;100459.31;;;6.12;100.00
56270;BME280;42176;43.240;27.880;2023-01-26T13:39:51;100457.56;;;6.39;100.00
56270;BME280;42176;43.240;27.880;2023-01-26T13:42:22;100462.00;;;6.52;100.00
56270;BME280;42176;43.240;27.880;2023-01-26T13:44:54;100466.34;;;6.15;100.00
56270;BME280;42176;43.240;27.880;2023-01-26T13:47:28;100451.44;;;6.52;100.00
56270;BME280;42176;43.240;27.880;2023-01-26T13:49:55;100443.53;;;6.60;100.00
56270;BME280;42176;43.240;27.880;2023-01-26T13:52:25;100455.72;;;5.90;100.00
56270;BME280;42176;43.240;27.880;2023-01-26T13:54:53;100470.72;;;6.27;100.00
56270;BME280;42176;43.240;27.880;2023-01-26T13:57:26;100463.72;;;6.47;100.00
56270;BME280;42176;43.240;27.880;2023-01-26T13:59:54;100442.69;;;6.53;100.00
56270;BME280;42176;43.240;27.880;2023-01-26T14:04:55;100451.34;;;5.87;100.00
56270;BME280;42176;43.240;27.880;2023-01-26T14:07:33;100454.94;;;6.17;100.00
56270;BME280;42176;43.240;27.880;2023-01-26T14:10:00;100454.94;;;6.33;100.00
56270;BME280;42176;43.240;27.880;2023-01-26T14:12:31;100447.06;;;6.40;100.00
56270;BME280;42176;43.240;27.880;2023-01-26T14:15:06;100432.13;;;6.47;100.00
56270;BME280;42176;43.240;27.880;2023-01-26T14:17:45;100435.63;;;6.43;100.00